createdAt,value
2023-01-19T00:01:30.959Z,96841.34
2023-01-19T00:04:04.242Z,96848.25
2023-01-19T00:06:37.218Z,96844.72
2023-01-19T00:09:10.334Z,96848.09
2023-01-19T00:11:43.371Z,96853.47
2023-01-19T00:14:17.715Z,96857.22
2023-01-19T00:16:50.741Z,96861.47
2023-01-19T00:19:23.808Z,96860.94
2023-01-19T00:21:57.173Z,96867.16
2023-01-19T00:24:30.143Z,96867.00
2023-01-19T00:27:04.089Z,96872.63
2023-01-19T00:29:38.481Z,96870.88
2023-01-19T00:32:11.458Z,96868.84
2023-01-19T00:34:49.437Z,96882.13
2023-01-19T00:37:22.506Z,96877.72
2023-01-19T00:39:55.519Z,96880.38
2023-01-19T00:42:45.274Z,96885.41
2023-01-19T00:45:22.102Z,96882.13
2023-01-19T00:47:57.199Z,96889.53
2023-01-19T00:50:33.665Z,96895.16
2023-01-19T00:53:06.752Z,96887.38
2023-01-19T00:55:39.773Z,96893.72
2023-01-19T00:58:12.869Z,96894.13
2023-01-19T01:00:47.280Z,96895.31
2023-01-19T01:03:20.373Z,96900.31
2023-01-19T01:05:53.423Z,96897.66
2023-01-19T01:08:26.519Z,96894.69
2023-01-19T01:10:59.580Z,96895.50
2023-01-19T01:13:33.046Z,96892.25
2023-01-19T01:16:09.792Z,96894.47
2023-01-19T01:18:43.048Z,96893.41
2023-01-19T01:21:16.057Z,96896.03
2023-01-19T01:23:49.029Z,96900.06
2023-01-19T01:26:22.282Z,96895.13
2023-01-19T01:28:55.295Z,96892.72
2023-01-19T01:31:29.878Z,96901.88
2023-01-19T01:34:02.965Z,96905.13
2023-01-19T01:36:36.145Z,96900.47
2023-01-19T01:39:09.168Z,96902.41
2023-01-19T01:41:42.134Z,96902.13
2023-01-19T01:44:51.562Z,96904.63
2023-01-19T01:47:32.850Z,96898.16
2023-01-19T01:50:12.716Z,96901.41
2023-01-19T01:53:06.397Z,96897.13
2023-01-19T01:55:46.565Z,96898.03
2023-01-19T01:58:19.563Z,96906.88
2023-01-19T02:01:10.430Z,96906.88
2023-01-19T02:03:45.376Z,96914.97
2023-01-19T02:06:18.844Z,96911.22
2023-01-19T02:09:14.589Z,96919.44
2023-01-19T02:12:05.925Z,96921.78
2023-01-19T02:14:39.138Z,96922.47
2023-01-19T02:17:12.194Z,96925.97
2023-01-19T02:19:46.716Z,96925.59
2023-01-19T02:22:26.246Z,96926.47
2023-01-19T02:25:00.895Z,96929.56
2023-01-19T02:27:34.293Z,96932.59
2023-01-19T02:30:10.016Z,96929.63
2023-01-19T02:32:43.378Z,96924.81
2023-01-19T02:35:17.125Z,96932.94
2023-01-19T02:37:50.317Z,96933.69
2023-01-19T02:40:25.810Z,96934.44
2023-01-19T02:43:00.935Z,96931.41
2023-01-19T02:45:34.737Z,96926.22
2023-01-19T02:48:08.341Z,96930.91
2023-01-19T02:50:46.289Z,96931.94
2023-01-19T02:54:12.561Z,96924.16
2023-01-19T02:57:13.855Z,96923.41
2023-01-19T03:00:08.032Z,96921.34
2023-01-19T03:02:55.886Z,96927.34
2023-01-19T03:05:41.728Z,96928.97
2023-01-19T03:08:23.935Z,96935.91
2023-01-19T03:11:03.423Z,96933.97
2023-01-19T03:13:46.549Z,96937.56
2023-01-19T03:16:23.193Z,96943.88
2023-01-19T03:18:59.822Z,96947.13
2023-01-19T03:21:37.065Z,96949.16
2023-01-19T03:24:12.532Z,96950.03
2023-01-19T03:26:49.958Z,96952.94
2023-01-19T03:29:29.405Z,96945.63
2023-01-19T03:32:09.049Z,96951.75
2023-01-19T03:34:43.989Z,96953.09
2023-01-19T03:37:17.647Z,96946.91
2023-01-19T03:39:51.351Z,96951.09
2023-01-19T03:42:26.485Z,96951.38
2023-01-19T03:45:02.918Z,96952.31
2023-01-19T03:47:37.571Z,96952.84
2023-01-19T03:50:19.350Z,96954.69
2023-01-19T03:53:03.143Z,96953.50
2023-01-19T03:55:38.627Z,96962.69
2023-01-19T03:58:11.878Z,96962.53
2023-01-19T04:00:46.294Z,96957.34
2023-01-19T04:03:19.884Z,96956.31
2023-01-19T04:05:52.872Z,96958.66
2023-01-19T04:08:25.858Z,96958.06
2023-01-19T04:10:59.233Z,96958.59
2023-01-19T04:13:32.250Z,96957.22
2023-01-19T04:16:07.884Z,96958.72
2023-01-19T04:18:42.303Z,96958.16
2023-01-19T04:21:15.494Z,96964.00
2023-01-19T04:23:49.886Z,96958.09
2023-01-19T04:26:22.901Z,96956.91
2023-01-19T04:28:55.883Z,96959.53
2023-01-19T04:31:31.288Z,96956.91
2023-01-19T04:34:04.537Z,96961.31
2023-01-19T04:36:37.559Z,96964.19
2023-01-19T04:39:11.756Z,96957.44
2023-01-19T04:41:44.763Z,96959.75
2023-01-19T04:44:17.755Z,96967.66
2023-01-19T04:46:52.207Z,96963.00
2023-01-19T04:49:25.261Z,96962.47
2023-01-19T04:51:58.318Z,96959.97
2023-01-19T04:54:31.585Z,96962.03
2023-01-19T04:57:04.737Z,96967.03
2023-01-19T04:59:37.724Z,96965.91
2023-01-19T05:02:12.106Z,96966.94
2023-01-19T05:04:45.148Z,96974.44
2023-01-19T05:07:18.458Z,96971.03
2023-01-19T05:09:51.513Z,96986.19
2023-01-19T05:12:24.545Z,96979.72
2023-01-19T05:14:57.541Z,96984.19
2023-01-19T05:17:31.915Z,96983.91
2023-01-19T05:20:05.739Z,96988.22
2023-01-19T05:22:39.462Z,96988.09
2023-01-19T05:25:12.465Z,96993.78
2023-01-19T05:27:45.847Z,96994.94
2023-01-19T05:30:19.285Z,96995.78
2023-01-19T05:32:53.649Z,96994.19
2023-01-19T05:35:35.671Z,96996.56
2023-01-19T05:38:09.208Z,96999.03
2023-01-19T05:40:42.227Z,96993.09
2023-01-19T05:43:15.961Z,96983.09
2023-01-19T05:45:48.984Z,96993.09
2023-01-19T05:48:23.290Z,96990.69
2023-01-19T05:50:59.876Z,96983.25
2023-01-19T05:53:33.389Z,96984.19
2023-01-19T05:56:09.269Z,96993.38
2023-01-19T05:58:42.299Z,96991.81
2023-01-19T06:01:15.438Z,96998.28
2023-01-19T06:03:50.329Z,96996.47
2023-01-19T06:06:23.598Z,96997.13
2023-01-19T06:08:56.636Z,97005.38
2023-01-19T06:11:29.677Z,97001.88
2023-01-19T06:14:02.706Z,97011.00
2023-01-19T06:16:35.768Z,97019.41
2023-01-19T06:19:10.695Z,97016.34
2023-01-19T06:21:49.523Z,97023.97
2023-01-19T06:24:24.031Z,97017.97
2023-01-19T06:26:57.061Z,97017.81
2023-01-19T06:29:30.059Z,97022.50
2023-01-19T06:32:03.356Z,97026.66
2023-01-19T06:34:40.160Z,97021.94
2023-01-19T06:37:13.378Z,97017.16
2023-01-19T06:39:46.372Z,97030.59
2023-01-19T06:42:19.387Z,97033.09
2023-01-19T06:44:52.409Z,97030.66
2023-01-19T06:47:25.424Z,97024.16
2023-01-19T06:49:59.794Z,97029.34
2023-01-19T06:52:32.774Z,97036.09
2023-01-19T06:55:10.701Z,97037.13
2023-01-19T06:57:44.366Z,97035.81
2023-01-19T07:00:18.909Z,97048.78
2023-01-19T07:02:52.040Z,97048.03
2023-01-19T07:05:26.557Z,97051.09
2023-01-19T07:07:59.545Z,97050.88
2023-01-19T07:11:25.038Z,97060.59
2023-01-19T07:13:25.627Z,97062.38
2023-01-19T07:15:58.759Z,97058.53
2023-01-19T07:18:31.974Z,97063.16
2023-01-19T07:21:07.703Z,97072.88
2023-01-19T07:23:40.730Z,97066.81
2023-01-19T07:26:15.286Z,97071.53
2023-01-19T07:28:48.708Z,97075.66
2023-01-19T07:31:21.987Z,97069.94
2023-01-19T07:33:55.258Z,97067.44
2023-01-19T07:36:29.590Z,97072.44
2023-01-19T07:39:02.680Z,97073.03
2023-01-19T07:41:35.669Z,97068.03
2023-01-19T07:44:08.823Z,97078.59
2023-01-19T07:46:43.329Z,97076.50
2023-01-19T07:49:16.319Z,97080.31
2023-01-19T07:51:50.686Z,97083.88
2023-01-19T07:54:24.078Z,97088.88
2023-01-19T07:56:57.182Z,97092.38
2023-01-19T07:59:32.239Z,97097.38
2023-01-19T08:02:05.673Z,97093.22
2023-01-19T08:04:38.797Z,97090.13
2023-01-19T08:07:13.705Z,97096.28
2023-01-19T08:09:46.685Z,97093.63
2023-01-19T08:12:19.707Z,97096.22
2023-01-19T08:14:52.740Z,97093.94
2023-01-19T08:17:25.754Z,97099.47
2023-01-19T08:19:58.948Z,97097.84
2023-01-19T08:22:33.287Z,97097.06
2023-01-19T08:25:07.352Z,97097.66
2023-01-19T08:27:40.318Z,97103.81
2023-01-19T08:30:14.222Z,97101.50
2023-01-19T08:32:47.209Z,97104.38
2023-01-19T08:35:20.200Z,97099.22
2023-01-19T08:37:54.578Z,97102.72
2023-01-19T08:40:27.929Z,97103.38
2023-01-19T08:43:03.778Z,97102.31
2023-01-19T08:45:41.402Z,97106.66
2023-01-19T08:48:14.914Z,97104.88
2023-01-19T08:50:48.941Z,97103.63
2023-01-19T08:53:24.481Z,97111.66
2023-01-19T08:56:00.028Z,97113.97
2023-01-19T08:58:33.067Z,97118.19
2023-01-19T09:01:06.861Z,97125.97
2023-01-19T09:03:40.189Z,97119.50
2023-01-19T09:06:17.018Z,97120.44
2023-01-19T09:08:51.359Z,97128.56
2023-01-19T09:11:24.397Z,97116.03
2023-01-19T09:13:57.402Z,97119.56
2023-01-19T09:16:30.483Z,97119.13
2023-01-19T09:19:03.566Z,97117.38
2023-01-19T09:21:36.856Z,97111.22
2023-01-19T09:24:11.806Z,97112.38
2023-01-19T09:26:44.893Z,97108.06
2023-01-19T09:29:18.160Z,97115.63
2023-01-19T09:31:51.274Z,97111.84
2023-01-19T09:34:25.543Z,97113.75
2023-01-19T09:36:58.652Z,97117.63
2023-01-19T09:39:33.077Z,97123.44
2023-01-19T09:42:15.091Z,97122.41
2023-01-19T09:44:51.111Z,97117.53
2023-01-19T09:47:29.115Z,97122.41
2023-01-19T09:50:07.012Z,97115.72
2023-01-19T09:52:45.206Z,97122.72
2023-01-19T09:55:24.493Z,97119.06
2023-01-19T09:57:58.037Z,97121.56
2023-01-19T10:00:32.644Z,97125.97
2023-01-19T10:03:16.219Z,97130.00
2023-01-19T10:05:54.019Z,97124.09
2023-01-19T10:08:37.168Z,97136.13
2023-01-19T10:11:26.313Z,97125.97
2023-01-19T10:14:00.583Z,97128.50
2023-01-19T10:16:45.744Z,97126.75
2023-01-19T10:19:26.669Z,97126.78
2023-01-19T10:22:06.011Z,97119.84
2023-01-19T10:24:42.774Z,97126.22
2023-01-19T10:27:20.819Z,97119.28
2023-01-19T10:29:53.966Z,97118.94
2023-01-19T10:32:30.391Z,97107.31
2023-01-19T10:35:21.177Z,97106.06
2023-01-19T10:37:57.908Z,97106.81
2023-01-19T10:40:37.606Z,97103.13
2023-01-19T10:43:48.152Z,97098.78
2023-01-19T10:46:25.773Z,97097.91
2023-01-19T10:48:59.079Z,97098.69
2023-01-19T10:51:32.251Z,97095.97
2023-01-19T10:54:06.284Z,97109.03
2023-01-19T10:56:40.469Z,97094.09
2023-01-19T10:59:35.564Z,97099.25
2023-01-19T11:02:21.326Z,97104.16
2023-01-19T11:04:57.095Z,97107.84
2023-01-19T11:07:32.535Z,97099.97
2023-01-19T11:10:27.105Z,97094.56
2023-01-19T11:13:03.900Z,97099.25
2023-01-19T11:15:46.147Z,97096.13
2023-01-19T11:18:28.553Z,97091.00
2023-01-19T11:21:03.801Z,97099.44
2023-01-19T11:23:42.862Z,97091.38
2023-01-19T11:26:25.384Z,97091.78
2023-01-19T11:29:00.281Z,97090.19
2023-01-19T11:31:36.923Z,97085.66
2023-01-19T11:34:26.916Z,97084.22
2023-01-19T11:37:03.033Z,97082.19
2023-01-19T11:39:49.488Z,97093.16
2023-01-19T11:42:23.433Z,97090.09
2023-01-19T11:45:14.060Z,97090.88
2023-01-19T11:47:52.398Z,97085.31
2023-01-19T11:50:30.314Z,97085.19
2023-01-19T11:53:12.615Z,97081.09
2023-01-19T11:55:53.773Z,97083.91
2023-01-19T11:58:28.003Z,97078.44
2023-01-19T12:01:06.485Z,97080.56
2023-01-19T12:03:45.343Z,97078.22
2023-01-19T12:06:22.719Z,97081.00
2023-01-19T12:09:00.082Z,97078.47
2023-01-19T12:11:37.390Z,97075.88
2023-01-19T12:14:20.054Z,97080.00
2023-01-19T12:17:00.432Z,97074.53
2023-01-19T12:19:44.139Z,97080.25
2023-01-19T12:22:19.000Z,97081.28
2023-01-19T12:24:59.279Z,97078.94
2023-01-19T12:27:41.239Z,97066.94
2023-01-19T12:30:22.401Z,97073.16
2023-01-19T12:33:34.767Z,97072.16
2023-01-19T12:36:14.192Z,97079.31
2023-01-19T12:38:52.449Z,97073.75
2023-01-19T12:41:30.077Z,97067.72
2023-01-19T12:44:30.716Z,97070.78
2023-01-19T12:47:22.395Z,97073.63
2023-01-19T12:50:00.829Z,97073.75
2023-01-19T12:52:41.579Z,97073.75
2023-01-19T12:55:24.169Z,97071.34
2023-01-19T12:58:03.165Z,97080.00
2023-01-19T13:00:39.975Z,97077.63
2023-01-19T13:03:44.926Z,97076.97
2023-01-19T13:06:18.109Z,97077.66
2023-01-19T13:09:02.012Z,97077.66
2023-01-19T13:11:35.127Z,97074.03
2023-01-19T13:14:35.853Z,97080.00
2023-01-19T13:17:28.389Z,97074.25
2023-01-19T13:20:27.672Z,97068.19
2023-01-19T13:23:26.069Z,97088.84
2023-01-19T13:26:07.127Z,97079.81
2023-01-19T13:28:44.659Z,97077.38
2023-01-19T13:31:18.644Z,97084.81
2023-01-19T13:33:54.862Z,97079.00
2023-01-19T13:36:32.540Z,97079.88
2023-01-19T13:39:08.618Z,97078.03
2023-01-19T13:41:45.016Z,97082.66
2023-01-19T13:44:26.096Z,97081.84
2023-01-19T13:47:00.132Z,97090.03
2023-01-19T13:49:37.254Z,97091.41
2023-01-19T13:52:21.430Z,97098.53
2023-01-19T13:54:56.601Z,97094.84
2023-01-19T13:57:32.855Z,97102.31
2023-01-19T14:00:17.337Z,97104.75
2023-01-19T14:02:58.754Z,97097.78
2023-01-19T14:05:34.679Z,97104.03
2023-01-19T14:08:15.268Z,97100.50
2023-01-19T14:11:02.091Z,97103.56
2023-01-19T14:13:40.186Z,97109.88
2023-01-19T14:16:18.007Z,97110.69
2023-01-19T14:19:02.260Z,97114.69
2023-01-19T14:21:40.485Z,97108.38
2023-01-19T14:24:19.249Z,97108.13
2023-01-19T14:26:54.771Z,97110.28
2023-01-19T14:29:32.570Z,97111.28
2023-01-19T14:32:16.366Z,97101.06
2023-01-19T14:34:51.901Z,97106.47
2023-01-19T14:37:28.683Z,97108.13
2023-01-19T14:40:05.623Z,97104.22
2023-01-19T14:42:45.608Z,97109.03
2023-01-19T14:45:22.557Z,97104.22
2023-01-19T14:47:58.232Z,97105.53
2023-01-19T14:50:35.206Z,97108.94
2023-01-19T14:53:16.379Z,97107.84
2023-01-19T14:55:52.445Z,97108.56
2023-01-19T14:58:28.598Z,97106.94
2023-01-19T15:01:03.716Z,97104.88
2023-01-19T15:03:45.681Z,97103.03
2023-01-19T15:06:21.496Z,97110.84
2023-01-19T15:08:55.514Z,97105.53
2023-01-19T15:11:32.588Z,97109.56
2023-01-19T15:14:05.704Z,97106.41
2023-01-19T15:16:40.505Z,97112.59
2023-01-19T15:19:14.775Z,97108.06
2023-01-19T15:21:47.848Z,97103.25
2023-01-19T15:24:20.870Z,97100.28
2023-01-19T15:26:54.067Z,97101.66
2023-01-19T15:29:28.676Z,97098.78
2023-01-19T15:32:03.940Z,97105.09
2023-01-19T15:34:37.036Z,97098.97
2023-01-19T15:37:10.277Z,97096.69
2023-01-19T15:39:43.373Z,97093.78
2023-01-19T15:42:16.636Z,97095.53
2023-01-19T15:44:49.687Z,97100.47
2023-01-19T15:47:24.054Z,97094.31
2023-01-19T15:49:57.147Z,97095.81
2023-01-19T15:52:30.215Z,97104.78
2023-01-19T15:55:03.255Z,97102.13
2023-01-19T15:57:36.387Z,97103.00
2023-01-19T16:00:11.701Z,97096.59
2023-01-19T16:02:46.202Z,97099.13
2023-01-19T16:05:19.414Z,97098.22
2023-01-19T16:07:52.991Z,97106.53
2023-01-19T16:10:26.826Z,97101.41
2023-01-19T16:12:59.866Z,97105.44
2023-01-19T16:15:35.720Z,97103.66
2023-01-19T16:18:10.171Z,97103.16
2023-01-19T16:20:43.192Z,97104.56
2023-01-19T16:23:16.282Z,97102.44
2023-01-19T16:25:58.504Z,97105.09
2023-01-19T16:28:32.116Z,97112.03
2023-01-19T16:31:05.979Z,97108.25
2023-01-19T16:33:40.400Z,97108.41
2023-01-19T16:36:22.750Z,97112.81
2023-01-19T16:38:59.609Z,97107.78
2023-01-19T16:41:33.600Z,97111.94
2023-01-19T16:44:08.034Z,97112.56
2023-01-19T16:46:44.410Z,97111.94
2023-01-19T16:49:21.171Z,97110.69
2023-01-19T16:51:55.339Z,97110.69
2023-01-19T16:54:29.888Z,97115.22
2023-01-19T16:57:02.991Z,97113.09
2023-01-19T16:59:36.164Z,97114.59
2023-01-19T17:02:11.117Z,97118.25
2023-01-19T17:04:45.575Z,97116.13
2023-01-19T17:07:19.366Z,97115.59
2023-01-19T17:09:52.495Z,97120.16
2023-01-19T17:12:25.678Z,97120.88
2023-01-19T17:14:58.718Z,97120.16
2023-01-19T17:17:31.834Z,97114.88
2023-01-19T17:20:07.844Z,97109.84
2023-01-19T17:22:40.890Z,97111.84
2023-01-19T17:25:13.984Z,97107.34
2023-01-19T17:27:47.035Z,97108.59
2023-01-19T17:30:20.420Z,97114.22
2023-01-19T17:32:53.850Z,97115.38
2023-01-19T17:35:28.289Z,97120.00
2023-01-19T17:38:01.323Z,97122.38
2023-01-19T17:40:34.339Z,97122.53
2023-01-19T17:43:07.835Z,97128.28
2023-01-19T17:45:40.862Z,97123.00
2023-01-19T17:48:14.140Z,97131.06
2023-01-19T17:50:48.570Z,97129.91
2023-01-19T17:53:21.645Z,97131.41
2023-01-19T17:55:54.748Z,97133.78
2023-01-19T17:58:27.803Z,97127.63
2023-01-19T18:01:09.027Z,97130.91
2023-01-19T18:03:42.734Z,97128.88
2023-01-19T18:06:17.857Z,97133.41
2023-01-19T18:08:52.421Z,97135.94
2023-01-19T18:11:25.590Z,97140.34
2023-01-19T18:14:00.175Z,97142.22
2023-01-19T18:16:33.511Z,97139.72
2023-01-19T18:19:06.592Z,97143.84
2023-01-19T18:21:41.059Z,97142.44
2023-01-19T18:24:14.111Z,97136.94
2023-01-19T18:26:47.138Z,97133.78
2023-01-19T18:29:20.518Z,97123.47
2023-01-19T18:31:53.584Z,97132.03
2023-01-19T18:34:26.637Z,97124.63
2023-01-19T18:37:01.228Z,97131.41
2023-01-19T18:39:34.514Z,97128.41
2023-01-19T18:42:07.552Z,97138.19
2023-01-19T18:44:40.603Z,97129.03
2023-01-19T18:47:13.660Z,97132.19
2023-01-19T18:49:46.724Z,97126.38
2023-01-19T18:52:21.579Z,97124.91
2023-01-19T18:54:54.678Z,97131.66
2023-01-19T18:57:27.750Z,97136.94
2023-01-19T19:00:00.932Z,97131.06
2023-01-19T19:02:34.518Z,97129.41
2023-01-19T19:05:09.158Z,97132.44
2023-01-19T19:07:43.872Z,97129.91
2023-01-19T19:10:17.563Z,97134.31
2023-01-19T19:12:50.834Z,97129.41
2023-01-19T19:15:24.277Z,97134.44
2023-01-19T19:17:57.313Z,97132.53
2023-01-19T19:20:30.631Z,97134.94
2023-01-19T19:23:05.242Z,97128.03
2023-01-19T19:25:38.833Z,97134.19
2023-01-19T19:28:11.898Z,97141.72
2023-01-19T19:30:46.522Z,97138.91
2023-01-19T19:33:19.609Z,97140.03
2023-01-19T19:35:58.000Z,97137.16
2023-01-19T19:38:32.516Z,97133.53
2023-01-19T19:41:10.208Z,97136.03
2023-01-19T19:43:43.249Z,97129.13
2023-01-19T19:46:20.030Z,97138.97
2023-01-19T19:48:54.485Z,97135.06
2023-01-19T19:51:28.937Z,97149.22
2023-01-19T19:54:03.331Z,97147.72
2023-01-19T19:56:36.439Z,97139.56
2023-01-19T19:59:10.210Z,97141.72
2023-01-19T20:01:44.937Z,97144.25
2023-01-19T20:04:20.177Z,97138.44
2023-01-19T20:06:53.581Z,97140.84
2023-01-19T20:09:27.951Z,97147.41
2023-01-19T20:12:00.975Z,97147.25
2023-01-19T20:14:35.255Z,97149.03
2023-01-19T20:17:08.244Z,97150.53
2023-01-19T20:19:41.262Z,97152.28
2023-01-19T20:22:14.335Z,97153.53
2023-01-19T20:24:51.301Z,97156.94
2023-01-19T20:27:24.327Z,97158.56
2023-01-19T20:29:58.402Z,97167.97
2023-01-19T20:32:31.504Z,97161.09
2023-01-19T20:35:06.275Z,97166.44
2023-01-19T20:37:39.430Z,97164.59
2023-01-19T20:40:13.892Z,97173.72
2023-01-19T20:42:46.915Z,97169.31
2023-01-19T20:45:20.683Z,97165.47
2023-01-19T20:47:54.318Z,97172.50
2023-01-19T20:50:27.353Z,97174.28
2023-01-19T20:53:00.367Z,97170.75
2023-01-19T20:55:34.725Z,97175.78
2023-01-19T20:58:07.885Z,97180.19
2023-01-19T21:00:41.022Z,97176.28
2023-01-19T21:03:14.465Z,97180.94
2023-01-19T21:05:48.621Z,97184.47
2023-01-19T21:08:21.585Z,97183.88
2023-01-19T21:10:58.268Z,97188.59
2023-01-19T21:13:31.708Z,97184.22
2023-01-19T21:16:06.377Z,97190.34
2023-01-19T21:18:39.411Z,97189.06
2023-01-19T21:21:28.477Z,97180.53
2023-01-19T21:24:03.889Z,97186.19
2023-01-19T21:26:38.876Z,97186.91
2023-01-19T21:29:13.968Z,97187.16
2023-01-19T21:31:47.013Z,97197.47
2023-01-19T21:34:20.013Z,97197.47
2023-01-19T21:36:53.362Z,97197.47
2023-01-19T21:39:26.361Z,97197.56
2023-01-19T21:42:00.720Z,97210.63
2023-01-19T21:44:33.909Z,97205.44
2023-01-19T21:47:08.989Z,97204.69
2023-01-19T21:49:42.004Z,97202.81
2023-01-19T21:52:14.995Z,97197.78
2023-01-19T21:54:47.962Z,97207.97
2023-01-19T21:57:22.343Z,97209.09
2023-01-19T21:59:55.468Z,97209.84
2023-01-19T22:02:38.301Z,97209.25
2023-01-19T22:05:12.621Z,97200.81
2023-01-19T22:07:45.796Z,97206.72
2023-01-19T22:10:19.247Z,97203.06
2023-01-19T22:12:53.646Z,97212.38
2023-01-19T22:15:26.656Z,97210.72
2023-01-19T22:17:59.712Z,97211.59
2023-01-19T22:20:32.733Z,97216.50
2023-01-19T22:23:05.867Z,97218.00
2023-01-19T22:25:38.877Z,97216.88
2023-01-19T22:28:13.229Z,97221.63
2023-01-19T22:30:46.359Z,97223.72
2023-01-19T22:33:19.419Z,97221.72
2023-01-19T22:35:52.453Z,97224.22
2023-01-19T22:38:25.438Z,97227.34
2023-01-19T22:40:58.413Z,97227.34
2023-01-19T22:43:32.787Z,97226.47
2023-01-19T22:46:08.621Z,97228.97
2023-01-19T22:48:41.741Z,97233.25
2023-01-19T22:51:15.688Z,97232.47
2023-01-19T22:53:48.852Z,97239.22
2023-01-19T22:56:24.427Z,97232.97
2023-01-19T22:58:59.717Z,97226.13
2023-01-19T23:01:35.206Z,97231.41
2023-01-19T23:04:11.703Z,97233.50
2023-01-19T23:06:46.847Z,97229.34
2023-01-19T23:09:20.308Z,97228.81
2023-01-19T23:11:53.315Z,97235.41
2023-01-19T23:14:29.387Z,97232.91
2023-01-19T23:17:02.459Z,97240.97
2023-01-19T23:19:35.664Z,97232.44
2023-01-19T23:22:08.677Z,97235.34
2023-01-19T23:24:44.418Z,97229.69
2023-01-19T23:27:17.422Z,97238.03
2023-01-19T23:29:51.731Z,97234.91
2023-01-19T23:32:24.733Z,97240.53
2023-01-19T23:34:57.752Z,97238.69
2023-01-19T23:37:30.769Z,97239.63
2023-01-19T23:40:03.874Z,97239.28
2023-01-19T23:42:36.889Z,97241.78
2023-01-19T23:45:12.376Z,97245.31
2023-01-19T23:47:46.367Z,97246.59
2023-01-19T23:50:19.798Z,97250.59
2023-01-19T23:52:52.796Z,97253.59
2023-01-19T23:55:25.886Z,97254.81
2023-01-19T23:57:58.961Z,97258.63
